createdAt,value
2018-09-19T00:00:03.444Z,20.53
2018-09-19T00:02:31.528Z,20.48
2018-09-19T00:04:59.967Z,20.44
2018-09-19T00:07:28.062Z,20.38
2018-09-19T00:09:56.145Z,20.33
2018-09-19T00:12:24.274Z,20.27
2018-09-19T00:14:52.356Z,20.21
2018-09-19T00:17:20.456Z,20.14
2018-09-19T00:19:48.645Z,20.08
2018-09-19T00:22:16.726Z,20.04
2018-09-19T00:24:44.823Z,19.98
2018-09-19T00:27:12.883Z,19.93
2018-09-19T00:29:40.981Z,19.88
2018-09-19T00:32:09.083Z,19.83
2018-09-19T00:34:37.201Z,19.79
2018-09-19T00:37:05.299Z,19.73
2018-09-19T00:39:33.383Z,19.69
2018-09-19T00:42:01.477Z,19.63
2018-09-19T00:44:29.543Z,19.59
2018-09-19T00:46:57.671Z,19.55
2018-09-19T00:49:25.763Z,19.51
2018-09-19T00:51:53.856Z,19.47
2018-09-19T00:54:21.957Z,19.43
2018-09-19T00:56:50.044Z,19.39
2018-09-19T00:59:18.164Z,19.38
2018-09-19T01:01:46.240Z,19.36
2018-09-19T01:04:14.339Z,19.35
2018-09-19T01:06:42.420Z,19.34
2018-09-19T01:09:10.585Z,19.31
2018-09-19T01:11:39.041Z,19.31
2018-09-19T01:14:07.169Z,19.28
2018-09-19T01:16:35.244Z,19.26
2018-09-19T01:19:03.360Z,19.24
2018-09-19T01:21:31.456Z,19.21
2018-09-19T01:23:59.604Z,19.18
2018-09-19T01:26:27.708Z,19.16
2018-09-19T01:28:55.869Z,19.16
2018-09-19T01:31:23.948Z,19.15
2018-09-19T01:33:52.091Z,19.13
2018-09-19T01:36:20.150Z,19.12
2018-09-19T01:38:48.264Z,19.14
2018-09-19T01:41:16.340Z,19.13
2018-09-19T01:43:44.440Z,19.10
2018-09-19T01:46:12.511Z,19.08
2018-09-19T01:48:40.588Z,19.09
2018-09-19T01:51:08.715Z,19.11
2018-09-19T01:53:36.803Z,19.11
2018-09-19T01:56:04.895Z,19.09
2018-09-19T01:58:33.036Z,19.09
2018-09-19T02:01:01.125Z,19.06
2018-09-19T02:03:29.193Z,19.04
2018-09-19T02:05:57.275Z,19.06
2018-09-19T02:08:25.372Z,19.04
2018-09-19T02:10:53.517Z,19.02
2018-09-19T02:13:21.580Z,19.00
2018-09-19T02:15:49.734Z,18.97
2018-09-19T02:18:17.815Z,18.95
2018-09-19T02:20:45.916Z,18.94
2018-09-19T02:23:14.060Z,18.95
2018-09-19T02:25:42.197Z,18.96
2018-09-19T02:28:10.309Z,18.98
2018-09-19T02:30:38.384Z,18.98
2018-09-19T02:33:06.773Z,19.00
2018-09-19T02:35:34.860Z,19.02
2018-09-19T02:38:02.945Z,19.04
2018-09-19T02:40:31.003Z,19.06
2018-09-19T02:42:59.137Z,19.11
2018-09-19T02:45:27.220Z,19.19
2018-09-19T02:47:55.411Z,19.25
2018-09-19T02:50:23.528Z,19.29
2018-09-19T02:52:54.570Z,19.34
2018-09-19T02:55:23.502Z,19.36
2018-09-19T02:57:51.611Z,19.36
2018-09-19T03:00:19.706Z,19.41
2018-09-19T03:02:47.815Z,19.41
2018-09-19T03:05:15.928Z,19.41
2018-09-19T03:07:44.175Z,19.41
2018-09-19T03:10:12.271Z,19.41
2018-09-19T03:12:40.382Z,19.40
2018-09-19T03:15:08.795Z,19.37
2018-09-19T03:17:37.156Z,19.36
2018-09-19T03:20:05.037Z,19.33
2018-09-19T03:22:33.107Z,19.30
2018-09-19T03:25:01.186Z,19.29
2018-09-19T03:27:29.335Z,19.26
2018-09-19T03:29:57.407Z,19.25
2018-09-19T03:32:25.555Z,19.21
2018-09-19T03:34:53.653Z,19.21
2018-09-19T03:37:21.725Z,19.15
2018-09-19T03:39:49.815Z,19.14
2018-09-19T03:42:17.919Z,19.10
2018-09-19T03:44:46.006Z,19.08
2018-09-19T03:47:14.100Z,19.04
2018-09-19T03:49:42.211Z,19.01
2018-09-19T03:52:10.272Z,18.97
2018-09-19T03:54:38.352Z,18.95
2018-09-19T03:57:06.415Z,18.94
2018-09-19T03:59:34.500Z,18.92
2018-09-19T04:02:02.549Z,18.92
2018-09-19T04:04:30.614Z,18.93
2018-09-19T04:06:58.702Z,18.92
2018-09-19T04:09:26.803Z,18.90
2018-09-19T04:11:54.872Z,18.86
2018-09-19T04:14:22.982Z,18.85
2018-09-19T04:16:51.059Z,18.81
2018-09-19T04:19:19.158Z,18.79
2018-09-19T04:21:51.019Z,18.76
2018-09-19T04:24:19.121Z,18.75
2018-09-19T04:26:47.250Z,18.74
2018-09-19T04:29:15.531Z,18.71
2018-09-19T04:31:43.916Z,18.69
2018-09-19T04:34:12.043Z,18.66
2018-09-19T04:36:40.220Z,18.63
2018-09-19T04:39:09.765Z,18.59
2018-09-19T04:41:37.884Z,18.57
2018-09-19T04:44:06.932Z,18.54
2018-09-19T04:46:35.426Z,18.53
2018-09-19T04:49:03.527Z,18.50
2018-09-19T04:51:31.798Z,18.46
2018-09-19T04:53:59.848Z,18.44
2018-09-19T04:56:27.970Z,18.41
2018-09-19T04:58:56.099Z,18.38
2018-09-19T05:01:24.234Z,18.36
2018-09-19T05:03:52.302Z,18.34
2018-09-19T05:06:20.402Z,18.34
2018-09-19T05:08:48.914Z,18.35
2018-09-19T05:11:17.065Z,18.32
2018-09-19T05:13:45.151Z,18.30
2018-09-19T05:16:13.340Z,18.31
2018-09-19T05:18:41.450Z,18.33
2018-09-19T05:21:09.573Z,18.35
2018-09-19T05:23:37.693Z,18.34
2018-09-19T05:26:05.807Z,18.38
2018-09-19T05:28:33.915Z,18.41
2018-09-19T05:31:02.019Z,18.48
2018-09-19T05:33:30.107Z,18.59
2018-09-19T05:35:58.264Z,18.75
2018-09-19T05:38:26.393Z,18.97
2018-09-19T05:40:54.511Z,19.05
2018-09-19T05:43:23.008Z,19.08
2018-09-19T05:45:51.296Z,19.11
2018-09-19T05:48:19.384Z,19.17
2018-09-19T05:50:47.541Z,19.26
2018-09-19T05:53:15.631Z,19.55
2018-09-19T05:55:43.786Z,19.87
2018-09-19T05:58:11.882Z,20.12
2018-09-19T06:00:46.059Z,20.45
2018-09-19T06:03:14.145Z,20.81
2018-09-19T06:05:43.053Z,21.09
2018-09-19T06:08:11.140Z,21.20
2018-09-19T06:10:39.288Z,21.06
2018-09-19T06:13:07.377Z,20.97
2018-09-19T06:15:35.433Z,20.87
2018-09-19T06:18:03.509Z,20.88
2018-09-19T06:20:31.548Z,20.91
2018-09-19T06:22:59.636Z,20.90
2018-09-19T06:25:27.761Z,21.02
2018-09-19T06:27:55.884Z,20.98
2018-09-19T06:30:23.952Z,20.92
2018-09-19T06:32:52.152Z,20.98
2018-09-19T06:35:20.119Z,21.38
2018-09-19T06:37:48.231Z,21.77
2018-09-19T06:40:16.353Z,22.10
2018-09-19T06:42:44.385Z,22.51
2018-09-19T06:45:12.443Z,22.91
2018-09-19T06:47:40.497Z,23.30
2018-09-19T06:50:08.552Z,23.69
2018-09-19T06:52:36.680Z,24.11
2018-09-19T06:55:04.736Z,24.53
2018-09-19T06:57:32.796Z,24.90
2018-09-19T07:00:00.933Z,25.17
2018-09-19T07:02:29.005Z,25.46
2018-09-19T07:04:57.060Z,25.78
2018-09-19T07:07:25.145Z,25.97
2018-09-19T07:09:53.216Z,26.31
2018-09-19T07:12:21.336Z,26.48
2018-09-19T07:14:49.400Z,26.71
2018-09-19T07:17:17.450Z,26.90
2018-09-19T07:19:45.506Z,27.24
2018-09-19T07:22:13.577Z,27.58
2018-09-19T07:24:41.684Z,27.76
2018-09-19T07:27:09.732Z,27.83
2018-09-19T07:29:37.790Z,27.99
2018-09-19T07:32:05.863Z,28.10
2018-09-19T07:34:33.913Z,28.08
2018-09-19T07:37:02.013Z,28.09
2018-09-19T07:39:30.055Z,28.22
2018-09-19T07:41:58.164Z,28.03
2018-09-19T07:44:26.204Z,27.77
2018-09-19T07:46:54.268Z,27.50
2018-09-19T07:49:22.393Z,27.53
2018-09-19T07:51:50.461Z,27.73
2018-09-19T07:54:18.531Z,27.77
2018-09-19T07:56:46.591Z,27.86
2018-09-19T07:59:14.648Z,27.85
2018-09-19T08:01:42.716Z,27.85
2018-09-19T08:04:10.796Z,27.75
2018-09-19T08:06:39.092Z,27.53
2018-09-19T08:09:07.557Z,27.44
2018-09-19T08:11:35.644Z,27.45
2018-09-19T08:14:03.709Z,27.34
2018-09-19T08:16:31.784Z,27.41
2018-09-19T08:19:00.596Z,27.50
2018-09-19T08:21:28.653Z,27.61
2018-09-19T08:23:56.722Z,27.54
2018-09-19T08:26:24.792Z,27.45
2018-09-19T08:28:52.853Z,27.63
2018-09-19T08:31:20.907Z,27.68
2018-09-19T08:33:48.976Z,27.62
2018-09-19T08:36:17.035Z,27.71
2018-09-19T08:38:45.097Z,27.78
2018-09-19T08:41:13.154Z,27.57
2018-09-19T08:43:41.225Z,27.61
2018-09-19T08:46:09.276Z,27.45
2018-09-19T08:48:37.348Z,27.51
2018-09-19T08:51:05.568Z,27.61
2018-09-19T08:53:33.632Z,27.73
2018-09-19T08:56:01.698Z,27.77
2018-09-19T08:58:29.973Z,27.68
2018-09-19T09:00:58.020Z,27.53
2018-09-19T09:03:26.078Z,27.47
2018-09-19T09:05:54.145Z,27.58
2018-09-19T09:08:22.279Z,27.77
2018-09-19T09:10:50.281Z,28.03
2018-09-19T09:13:18.369Z,28.38
2018-09-19T09:15:46.420Z,28.66
2018-09-19T09:18:14.484Z,28.45
2018-09-19T09:20:42.537Z,28.20
2018-09-19T09:23:10.590Z,27.97
2018-09-19T09:25:38.645Z,27.80
2018-09-19T09:28:06.723Z,27.63
2018-09-19T09:30:34.817Z,27.36
2018-09-19T09:33:02.911Z,27.25
2018-09-19T09:35:30.995Z,27.24
2018-09-19T09:37:59.075Z,27.13
2018-09-19T09:40:27.204Z,27.01
2018-09-19T09:42:55.238Z,26.92
2018-09-19T09:45:23.305Z,26.82
2018-09-19T09:47:51.378Z,26.91
2018-09-19T09:50:19.533Z,26.89
2018-09-19T09:52:47.589Z,26.88
2018-09-19T09:55:15.737Z,26.85
2018-09-19T09:57:43.818Z,26.81
2018-09-19T10:00:11.946Z,26.72
2018-09-19T10:02:40.047Z,26.71
2018-09-19T10:05:08.138Z,26.69
2018-09-19T10:07:36.223Z,26.68
2018-09-19T10:10:04.325Z,26.70
2018-09-19T10:12:32.412Z,26.72
2018-09-19T10:15:00.488Z,26.75
2018-09-19T10:17:28.575Z,26.78
2018-09-19T10:19:56.698Z,26.71
2018-09-19T10:22:24.816Z,26.69
2018-09-19T10:24:56.881Z,26.75
2018-09-19T10:27:26.601Z,26.81
2018-09-19T10:29:54.694Z,26.86
2018-09-19T10:32:22.764Z,26.89
2018-09-19T10:34:50.819Z,26.90
2018-09-19T10:37:18.872Z,26.82
2018-09-19T10:39:46.985Z,26.93
2018-09-19T10:42:15.069Z,26.85
2018-09-19T10:44:43.183Z,26.89
2018-09-19T10:47:11.313Z,27.04
2018-09-19T10:49:39.445Z,27.16
2018-09-19T10:52:07.698Z,27.32
2018-09-19T10:54:35.853Z,27.34
2018-09-19T10:57:03.977Z,27.41
2018-09-19T10:59:31.975Z,27.48
2018-09-19T11:02:00.263Z,27.42
2018-09-19T11:04:28.343Z,27.41
2018-09-19T11:06:56.419Z,27.48
2018-09-19T11:09:24.526Z,27.53
2018-09-19T11:11:52.669Z,27.61
2018-09-19T11:14:20.744Z,27.72
2018-09-19T11:16:48.845Z,27.87
2018-09-19T11:19:16.893Z,27.84
2018-09-19T11:21:44.963Z,27.90
2018-09-19T11:24:13.503Z,27.83
2018-09-19T11:26:41.574Z,27.83
2018-09-19T11:29:09.744Z,27.83
2018-09-19T11:31:37.954Z,27.75
2018-09-19T11:34:06.124Z,27.76
2018-09-19T11:36:34.190Z,27.85
2018-09-19T11:39:02.229Z,27.94
2018-09-19T11:41:30.308Z,28.11
2018-09-19T11:43:58.361Z,28.28
2018-09-19T11:46:26.408Z,28.18
2018-09-19T11:48:54.489Z,28.21
2018-09-19T11:51:22.560Z,28.37
2018-09-19T11:53:50.920Z,28.32
2018-09-19T11:59:26.584Z,28.25
2018-09-19T12:01:54.720Z,28.24
2018-09-19T12:04:22.757Z,28.30
2018-09-19T12:07:25.556Z,28.35
2018-09-19T12:13:06.304Z,28.33
2018-09-19T12:15:34.935Z,28.38
2018-09-19T12:18:03.002Z,28.50
2018-09-19T12:20:31.182Z,28.48
2018-09-19T12:22:59.994Z,28.46
2018-09-19T12:25:28.324Z,28.44
2018-09-19T12:27:56.408Z,28.49
2018-09-19T12:30:24.576Z,28.48
2018-09-19T12:32:52.732Z,28.44
2018-09-19T12:35:20.789Z,28.41
2018-09-19T12:37:48.833Z,28.40
2018-09-19T12:40:16.900Z,28.39
2018-09-19T12:42:44.941Z,28.51
2018-09-19T12:45:12.971Z,28.47
2018-09-19T12:47:41.003Z,28.62
2018-09-19T12:50:09.041Z,28.62
2018-09-19T12:52:37.124Z,28.73
2018-09-19T12:55:05.331Z,28.77
2018-09-19T12:57:33.367Z,28.75
2018-09-19T13:00:01.634Z,28.74
2018-09-19T13:02:29.716Z,28.83
2018-09-19T13:04:57.772Z,28.86
2018-09-19T13:07:25.818Z,28.94
2018-09-19T13:09:53.844Z,28.86
2018-09-19T13:12:21.909Z,28.85
2018-09-19T13:14:50.056Z,28.80
2018-09-19T13:17:18.125Z,28.80
2018-09-19T13:19:46.266Z,28.70
2018-09-19T13:22:14.318Z,28.69
2018-09-19T13:24:42.394Z,28.58
2018-09-19T13:27:10.448Z,28.53
2018-09-19T13:29:38.510Z,28.56
2018-09-19T13:32:06.592Z,28.58
2018-09-19T13:34:34.692Z,28.57
2018-09-19T13:37:02.871Z,28.55
2018-09-19T13:39:30.937Z,28.72
2018-09-19T13:41:58.984Z,28.73
2018-09-19T13:44:27.061Z,28.75
2018-09-19T13:46:55.112Z,28.72
2018-09-19T13:49:26.588Z,28.72
2018-09-19T13:51:54.724Z,28.73
2018-09-19T13:54:22.771Z,28.81
2018-09-19T13:56:50.955Z,28.94
2018-09-19T13:59:18.988Z,28.97
2018-09-19T14:01:47.116Z,29.01
2018-09-19T14:04:15.275Z,29.08
2018-09-19T14:06:43.344Z,28.94
2018-09-19T14:09:11.407Z,28.96
2018-09-19T14:11:39.512Z,28.96
2018-09-19T14:14:07.521Z,28.77
2018-09-19T14:16:35.589Z,28.74
2018-09-19T14:19:03.664Z,28.66
2018-09-19T14:21:31.716Z,28.72
2018-09-19T14:23:59.813Z,28.82
2018-09-19T14:26:27.952Z,28.77
2018-09-19T14:28:56.051Z,28.74
2018-09-19T14:31:24.135Z,28.75
2018-09-19T14:33:52.303Z,28.72
2018-09-19T14:36:20.382Z,28.70
2018-09-19T14:38:48.427Z,28.77
2018-09-19T14:41:16.533Z,28.76
2018-09-19T14:43:44.609Z,28.86
2018-09-19T14:46:12.686Z,28.93
2018-09-19T14:48:40.861Z,28.96
2018-09-19T14:51:08.900Z,28.96
2018-09-19T14:53:37.016Z,28.85
2018-09-19T14:56:05.166Z,28.83
2018-09-19T14:58:33.282Z,28.68
2018-09-19T15:01:01.361Z,28.85
2018-09-19T15:03:29.462Z,28.87
2018-09-19T15:05:57.535Z,28.88
2018-09-19T15:08:25.635Z,28.87
2018-09-19T15:10:53.994Z,28.85
2018-09-19T15:13:22.048Z,28.85
2018-09-19T15:15:50.096Z,28.93
2018-09-19T15:18:18.284Z,28.88
2018-09-19T15:20:46.340Z,28.87
2018-09-19T15:23:14.392Z,28.91
2018-09-19T15:25:42.450Z,28.92
2018-09-19T15:28:10.527Z,28.83
2018-09-19T15:30:38.605Z,28.79
2018-09-19T15:33:09.724Z,28.82
2018-09-19T15:35:37.765Z,28.91
2018-09-19T15:38:06.048Z,28.97
2018-09-19T15:40:34.075Z,28.97
2018-09-19T15:43:02.137Z,28.93
2018-09-19T15:45:30.176Z,28.89
2018-09-19T15:47:58.252Z,28.89
2018-09-19T15:50:26.444Z,28.74
2018-09-19T15:52:54.472Z,28.88
2018-09-19T15:55:22.538Z,28.86
2018-09-19T15:57:50.630Z,28.81
2018-09-19T16:00:18.637Z,28.77
2018-09-19T16:02:46.685Z,28.68
2018-09-19T16:05:14.782Z,28.66
2018-09-19T16:07:42.831Z,28.64
2018-09-19T16:10:10.985Z,28.61
2018-09-19T16:12:39.020Z,28.58
2018-09-19T16:15:07.078Z,28.55
2018-09-19T16:17:35.148Z,28.51
2018-09-19T16:20:03.192Z,28.45
2018-09-19T16:22:31.232Z,28.41
2018-09-19T16:24:59.320Z,28.36
2018-09-19T16:27:27.408Z,28.29
2018-09-19T16:29:55.461Z,28.22
2018-09-19T16:32:23.537Z,28.20
2018-09-19T16:34:51.592Z,28.14
2018-09-19T16:37:19.632Z,28.14
2018-09-19T16:39:47.684Z,28.09
2018-09-19T16:42:15.720Z,28.08
2018-09-19T16:44:43.781Z,28.00
2018-09-19T16:47:11.826Z,28.00
2018-09-19T16:49:39.937Z,27.97
2018-09-19T16:52:07.991Z,27.94
2018-09-19T16:54:36.042Z,27.86
2018-09-19T16:57:04.133Z,27.81
2018-09-19T16:59:32.180Z,27.75
2018-09-19T17:02:00.244Z,27.68
2018-09-19T17:04:28.328Z,27.60
2018-09-19T17:06:56.394Z,27.51
2018-09-19T17:09:24.524Z,27.46
2018-09-19T17:11:52.580Z,27.41
2018-09-19T17:14:20.650Z,27.32
2018-09-19T17:16:48.709Z,27.25
2018-09-19T17:19:16.775Z,27.14
2018-09-19T17:21:44.817Z,27.06
2018-09-19T17:24:12.875Z,26.98
2018-09-19T17:26:41.069Z,26.92
2018-09-19T17:29:09.119Z,26.83
2018-09-19T17:31:37.197Z,26.77
2018-09-19T17:34:05.244Z,26.69
2018-09-19T17:36:33.312Z,26.60
2018-09-19T17:39:01.368Z,26.54
2018-09-19T17:41:29.424Z,26.46
2018-09-19T17:43:57.514Z,26.38
2018-09-19T17:46:25.559Z,26.32
2018-09-19T17:48:53.654Z,26.24
2018-09-19T17:51:21.708Z,26.19
2018-09-19T17:53:49.770Z,26.14
2018-09-19T17:56:17.841Z,26.07
2018-09-19T17:58:46.096Z,26.03
2018-09-19T18:01:14.751Z,25.98
2018-09-19T18:03:43.142Z,25.91
2018-09-19T18:06:11.304Z,25.86
2018-09-19T18:08:39.584Z,25.81
2018-09-19T18:11:07.715Z,25.76
2018-09-19T18:13:35.822Z,25.71
2018-09-19T18:16:03.932Z,25.66
2018-09-19T18:18:32.027Z,25.61
2018-09-19T18:21:00.169Z,25.57
2018-09-19T18:23:28.357Z,25.51
2018-09-19T18:25:56.491Z,25.47
2018-09-19T18:28:24.644Z,25.42
2018-09-19T18:30:52.838Z,25.38
2018-09-19T18:33:20.929Z,25.34
2018-09-19T18:35:49.018Z,25.29
2018-09-19T18:38:17.131Z,25.24
2018-09-19T18:40:45.270Z,25.22
2018-09-19T18:43:13.701Z,25.20
2018-09-19T18:45:41.834Z,25.16
2018-09-19T18:48:10.027Z,25.13
2018-09-19T18:50:39.876Z,25.10
2018-09-19T18:53:08.069Z,25.05
2018-09-19T18:55:36.269Z,25.02
2018-09-19T18:58:04.495Z,25.01
2018-09-19T19:00:32.584Z,25.00
2018-09-19T19:03:00.810Z,24.98
2018-09-19T19:05:28.891Z,24.95
2018-09-19T19:07:57.073Z,24.94
2018-09-19T19:10:25.157Z,24.95
2018-09-19T19:12:53.300Z,24.93
2018-09-19T19:15:21.511Z,24.92
2018-09-19T19:17:49.649Z,24.89
2018-09-19T19:20:17.721Z,24.84
2018-09-19T19:22:45.820Z,24.81
2018-09-19T19:25:13.897Z,24.76
2018-09-19T19:27:42.078Z,24.74
2018-09-19T19:30:10.270Z,24.71
2018-09-19T19:32:38.453Z,24.64
2018-09-19T19:35:06.557Z,24.60
2018-09-19T19:37:34.825Z,24.57
2018-09-19T19:40:02.887Z,24.52
2018-09-19T19:42:31.221Z,24.50
2018-09-19T19:44:59.298Z,24.45
2018-09-19T19:47:27.406Z,24.41
2018-09-19T19:49:55.954Z,24.31
2018-09-19T19:52:24.129Z,24.26
2018-09-19T19:54:52.316Z,24.24
2018-09-19T19:57:20.434Z,24.23
2018-09-19T19:59:48.497Z,24.21
2018-09-19T20:02:16.738Z,24.18
2018-09-19T20:04:45.153Z,24.12
2018-09-19T20:07:13.313Z,24.06
2018-09-19T20:09:41.454Z,24.02
2018-09-19T20:12:10.421Z,23.98
2018-09-19T20:14:39.184Z,23.93
2018-09-19T20:17:07.263Z,23.87
2018-09-19T20:19:35.499Z,23.78
2018-09-19T20:22:03.672Z,23.69
2018-09-19T20:24:31.877Z,23.61
2018-09-19T20:26:59.993Z,23.52
2018-09-19T20:29:28.180Z,23.45
2018-09-19T20:31:59.772Z,23.40
2018-09-19T20:34:27.971Z,23.35
2018-09-19T20:36:56.053Z,23.29
2018-09-19T20:39:24.204Z,23.23
2018-09-19T20:41:52.418Z,23.16
2018-09-19T20:44:21.647Z,23.12
2018-09-19T20:46:49.797Z,23.04
2018-09-19T20:49:17.857Z,23.00
2018-09-19T20:51:45.933Z,22.95
2018-09-19T20:54:14.203Z,22.87
2018-09-19T20:56:42.416Z,22.82
2018-09-19T20:59:10.542Z,22.75
2018-09-19T21:01:38.612Z,22.68
2018-09-19T21:04:06.817Z,22.64
2018-09-19T21:06:35.012Z,22.60
2018-09-19T21:09:03.656Z,22.55
2018-09-19T21:11:31.772Z,22.50
2018-09-19T21:14:03.546Z,22.44
2018-09-19T21:16:31.671Z,22.40
2018-09-19T21:18:59.799Z,22.35
2018-09-19T21:21:27.970Z,22.32
2018-09-19T21:23:56.084Z,22.28
2018-09-19T21:26:24.220Z,22.24
2018-09-19T21:28:52.343Z,22.21
2018-09-19T21:31:20.434Z,22.17
2018-09-19T21:33:48.555Z,22.12
2018-09-19T21:36:16.667Z,22.09
2018-09-19T21:38:44.770Z,22.08
2018-09-19T21:41:12.873Z,22.05
2018-09-19T21:43:40.961Z,22.01
2018-09-19T21:46:09.121Z,21.99
2018-09-19T21:48:37.283Z,21.96
2018-09-19T21:51:05.373Z,21.93
2018-09-19T21:53:33.443Z,21.91
2018-09-19T21:56:01.544Z,21.91
2018-09-19T21:58:29.669Z,21.87
2018-09-19T22:01:03.064Z,21.83
2018-09-19T22:03:31.142Z,21.80
2018-09-19T22:05:59.210Z,21.69
2018-09-19T22:08:27.389Z,21.69
2018-09-19T22:10:55.544Z,21.65
2018-09-19T22:13:23.645Z,21.62
2018-09-19T22:15:51.728Z,21.59
2018-09-19T22:18:19.822Z,21.58
2018-09-19T22:20:47.942Z,21.56
2018-09-19T22:23:16.042Z,21.54
2018-09-19T22:25:44.181Z,21.52
2018-09-19T22:28:12.312Z,21.48
2018-09-19T22:30:40.396Z,21.44
2018-09-19T22:33:08.699Z,21.40
2018-09-19T22:35:36.875Z,21.36
2018-09-19T22:38:04.954Z,21.31
2018-09-19T22:40:33.048Z,21.29
2018-09-19T22:43:01.192Z,21.26
2018-09-19T22:45:29.322Z,21.24
2018-09-19T22:47:57.457Z,21.24
2018-09-19T22:50:25.522Z,21.24
2018-09-19T22:52:53.592Z,21.24
2018-09-19T22:55:21.690Z,21.23
2018-09-19T22:57:49.795Z,21.19
2018-09-19T23:00:17.904Z,21.22
2018-09-19T23:02:45.989Z,21.21
2018-09-19T23:05:14.080Z,21.22
2018-09-19T23:07:42.186Z,21.21
2018-09-19T23:10:10.301Z,21.19
2018-09-19T23:12:38.381Z,21.18
2018-09-19T23:15:06.933Z,21.15
2018-09-19T23:17:35.040Z,21.15
2018-09-19T23:20:03.167Z,21.11
2018-09-19T23:22:31.328Z,21.13
2018-09-19T23:24:59.407Z,21.15
2018-09-19T23:29:54.642Z,21.11
2018-09-19T23:32:22.724Z,21.09
2018-09-19T23:34:50.809Z,21.12
2018-09-19T23:37:18.883Z,21.09
2018-09-19T23:39:46.992Z,21.08
2018-09-19T23:42:15.704Z,21.07
2018-09-19T23:44:44.392Z,21.04
2018-09-19T23:47:12.484Z,21.03
2018-09-19T23:49:40.543Z,20.99
2018-09-19T23:52:08.676Z,20.97
2018-09-19T23:54:36.819Z,20.92
2018-09-19T23:57:04.873Z,20.90
2018-09-19T23:59:32.976Z,20.86
